createdAt,value
2017-03-29T00:00:56.613Z,33.76
2017-03-29T00:02:06.540Z,33.66
2017-03-29T00:03:16.446Z,33.47
2017-03-29T00:04:27.067Z,33.47
2017-03-29T00:05:36.982Z,33.37
2017-03-29T00:06:46.584Z,33.66
2017-03-29T00:07:56.484Z,33.47
2017-03-29T00:09:06.718Z,33.28
2017-03-29T00:10:16.927Z,33.28
2017-03-29T00:11:27.163Z,33.47
2017-03-29T00:12:37.071Z,33.28
2017-03-29T00:13:46.990Z,33.47
2017-03-29T00:14:56.901Z,33.47
2017-03-29T00:16:07.219Z,33.37
2017-03-29T00:17:17.435Z,33.76
2017-03-29T00:18:27.344Z,33.66
2017-03-29T00:19:37.268Z,33.86
2017-03-29T00:20:47.486Z,33.47
2017-03-29T00:21:58.157Z,33.76
2017-03-29T00:23:08.062Z,33.37
2017-03-29T00:24:17.666Z,33.57
2017-03-29T00:25:26.975Z,33.76
2017-03-29T00:26:36.875Z,33.18
2017-03-29T00:27:47.793Z,33.18
2017-03-29T00:28:57.402Z,33.57
2017-03-29T00:30:07.313Z,33.66
2017-03-29T00:31:17.215Z,33.18
2017-03-29T00:32:27.123Z,33.18
2017-03-29T00:33:37.428Z,33.66
2017-03-29T00:34:47.338Z,33.66
2017-03-29T00:35:56.939Z,33.28
2017-03-29T00:37:06.837Z,33.37
2017-03-29T00:38:17.058Z,33.66
2017-03-29T00:39:27.106Z,33.86
2017-03-29T00:40:36.713Z,33.66
2017-03-29T00:41:46.322Z,33.66
2017-03-29T00:42:56.548Z,33.76
2017-03-29T00:44:06.780Z,33.66
2017-03-29T00:45:16.691Z,33.66
2017-03-29T00:46:26.941Z,33.66
2017-03-29T00:47:36.541Z,33.66
2017-03-29T00:48:46.464Z,33.66
2017-03-29T00:49:56.686Z,33.66
2017-03-29T00:51:06.738Z,33.66
2017-03-29T00:52:16.660Z,33.57
2017-03-29T00:53:26.574Z,33.66
2017-03-29T00:54:35.876Z,33.66
2017-03-29T00:55:46.098Z,33.66
2017-03-29T00:56:56.064Z,33.66
2017-03-29T00:58:06.291Z,33.66
2017-03-29T00:59:16.520Z,33.66
2017-03-29T01:00:26.131Z,33.66
2017-03-29T01:01:36.051Z,33.66
2017-03-29T01:02:46.560Z,33.76
2017-03-29T01:03:56.460Z,33.86
2017-03-29T01:05:06.671Z,33.76
2017-03-29T01:06:16.591Z,33.76
2017-03-29T01:07:26.217Z,33.86
2017-03-29T01:08:36.283Z,33.86
2017-03-29T01:09:45.939Z,33.86
2017-03-29T01:10:55.846Z,34.05
2017-03-29T01:12:06.067Z,33.86
2017-03-29T01:13:16.299Z,34.05
2017-03-29T01:14:26.366Z,33.95
2017-03-29T01:15:36.590Z,33.95
2017-03-29T01:16:46.494Z,34.14
2017-03-29T01:17:56.421Z,34.05
2017-03-29T01:19:06.040Z,33.95
2017-03-29T01:20:16.207Z,34.05
2017-03-29T01:21:26.434Z,34.05
2017-03-29T01:22:36.663Z,34.24
2017-03-29T01:23:46.896Z,34.05
2017-03-29T01:24:56.193Z,34.14
2017-03-29T01:26:06.456Z,34.14
2017-03-29T01:27:16.363Z,34.24
2017-03-29T01:28:26.586Z,34.24
2017-03-29T01:29:36.816Z,33.86
2017-03-29T01:30:46.722Z,34.14
2017-03-29T01:31:56.585Z,34.14
2017-03-29T01:33:06.180Z,34.05
2017-03-29T01:34:15.795Z,34.05
2017-03-29T01:35:25.398Z,34.24
2017-03-29T01:36:35.613Z,34.05
2017-03-29T01:37:45.833Z,33.95
2017-03-29T01:38:56.051Z,34.05
2017-03-29T01:40:05.960Z,34.14
2017-03-29T01:41:16.227Z,34.14
2017-03-29T01:42:26.138Z,34.14
2017-03-29T01:43:37.058Z,34.14
2017-03-29T01:44:46.958Z,34.05
2017-03-29T01:45:57.209Z,34.05
2017-03-29T01:47:06.820Z,34.05
2017-03-29T01:48:16.418Z,34.03
2017-03-29T01:49:26.783Z,34.05
2017-03-29T01:50:36.385Z,34.05
2017-03-29T01:51:46.289Z,34.05
2017-03-29T01:53:28.284Z,34.05
2017-03-29T01:54:38.641Z,34.05
2017-03-29T01:55:48.547Z,34.14
2017-03-29T01:56:58.516Z,34.05
2017-03-29T01:58:08.112Z,34.05
2017-03-29T01:59:18.022Z,34.14
2017-03-29T02:00:28.089Z,34.14
2017-03-29T02:01:37.685Z,34.03
2017-03-29T02:02:47.600Z,34.05
2017-03-29T02:03:57.507Z,34.13
2017-03-29T02:05:07.720Z,34.05
2017-03-29T02:06:18.098Z,34.14
2017-03-29T02:07:28.313Z,34.13
2017-03-29T02:08:37.318Z,34.03
2017-03-29T02:09:47.527Z,34.14
2017-03-29T02:10:57.746Z,34.03
2017-03-29T02:12:08.114Z,34.14
2017-03-29T02:13:18.028Z,33.94
2017-03-29T02:14:27.923Z,34.13
2017-03-29T02:15:37.821Z,34.05
2017-03-29T02:16:47.129Z,33.95
2017-03-29T02:17:57.221Z,34.13
2017-03-29T02:19:07.132Z,34.03
2017-03-29T02:20:17.043Z,33.95
2017-03-29T02:21:26.944Z,34.03
2017-03-29T02:22:36.250Z,34.32
2017-03-29T02:23:46.611Z,33.94
2017-03-29T02:24:56.517Z,34.03
2017-03-29T02:26:06.424Z,34.03
2017-03-29T02:27:16.023Z,34.03
2017-03-29T02:28:25.634Z,33.94
2017-03-29T02:29:36.004Z,34.03
2017-03-29T02:30:45.910Z,34.03
2017-03-29T02:31:56.126Z,34.03
2017-03-29T02:33:06.057Z,34.03
2017-03-29T02:34:16.268Z,33.94
2017-03-29T02:35:26.327Z,34.03
2017-03-29T02:36:35.929Z,33.74
2017-03-29T02:37:46.153Z,34.03
2017-03-29T02:38:55.753Z,33.94
2017-03-29T02:40:05.046Z,33.74
2017-03-29T02:41:14.823Z,33.94
2017-03-29T02:42:24.734Z,33.95
2017-03-29T02:43:34.336Z,34.22
2017-03-29T02:44:44.263Z,34.34
2017-03-29T02:45:54.491Z,34.34
2017-03-29T02:47:04.189Z,34.34
2017-03-29T02:48:14.423Z,34.32
2017-03-29T02:49:24.033Z,34.32
2017-03-29T02:50:33.626Z,34.32
2017-03-29T02:51:43.556Z,34.32
2017-03-29T02:52:53.860Z,34.32
2017-03-29T02:54:03.458Z,34.32
2017-03-29T02:55:13.677Z,34.42
2017-03-29T02:56:23.596Z,34.32
2017-03-29T02:57:33.817Z,34.32
2017-03-29T02:58:44.125Z,34.22
2017-03-29T02:59:53.450Z,34.32
2017-03-29T03:01:03.073Z,34.32
2017-03-29T03:02:12.675Z,34.42
2017-03-29T03:03:22.881Z,34.22
2017-03-29T03:04:32.882Z,34.32
2017-03-29T03:05:42.800Z,34.42
2017-03-29T03:06:53.027Z,34.22
2017-03-29T03:08:03.242Z,34.42
2017-03-29T03:09:13.449Z,34.32
2017-03-29T03:10:23.511Z,34.32
2017-03-29T03:11:33.756Z,34.32
2017-03-29T03:12:43.353Z,34.22
2017-03-29T03:13:53.562Z,34.32
2017-03-29T03:15:03.149Z,34.42
2017-03-29T03:16:13.209Z,34.22
2017-03-29T03:17:23.428Z,34.32
2017-03-29T03:18:33.668Z,34.42
2017-03-29T03:19:43.874Z,34.22
2017-03-29T03:20:54.099Z,34.32
2017-03-29T03:22:04.166Z,34.32
2017-03-29T03:23:13.771Z,34.32
2017-03-29T03:24:23.373Z,34.42
2017-03-29T03:25:33.589Z,34.22
2017-03-29T03:26:43.505Z,34.22
2017-03-29T03:27:53.884Z,34.22
2017-03-29T03:29:03.821Z,34.22
2017-03-29T03:30:13.123Z,34.22
2017-03-29T03:31:23.335Z,34.22
2017-03-29T03:32:33.560Z,34.22
2017-03-29T03:33:43.824Z,34.22
2017-03-29T03:34:53.744Z,34.22
2017-03-29T03:36:03.649Z,34.22
2017-03-29T03:37:13.580Z,34.22
2017-03-29T03:38:23.178Z,34.32
2017-03-29T03:39:33.583Z,34.32
2017-03-29T03:40:43.805Z,34.22
2017-03-29T03:41:54.023Z,34.22
2017-03-29T03:43:04.242Z,34.22
2017-03-29T03:44:14.162Z,34.22
2017-03-29T03:45:24.212Z,34.22
2017-03-29T03:46:34.174Z,34.13
2017-03-29T03:47:44.070Z,34.22
2017-03-29T03:48:53.980Z,34.22
2017-03-29T03:50:03.909Z,34.22
2017-03-29T03:51:14.283Z,34.32
2017-03-29T03:52:23.598Z,34.32
2017-03-29T03:53:33.816Z,34.13
2017-03-29T03:54:44.038Z,34.22
2017-03-29T03:55:53.970Z,34.22
2017-03-29T03:57:04.338Z,34.32
2017-03-29T03:58:14.572Z,34.22
2017-03-29T03:59:24.783Z,34.22
2017-03-29T04:00:34.385Z,34.32
2017-03-29T04:01:43.687Z,34.22
2017-03-29T04:02:53.432Z,34.22
2017-03-29T04:04:03.638Z,34.22
2017-03-29T04:05:13.858Z,34.13
2017-03-29T04:06:23.766Z,34.22
2017-03-29T04:07:34.008Z,34.22
2017-03-29T04:08:44.388Z,34.13
2017-03-29T04:09:54.298Z,34.13
2017-03-29T04:11:04.222Z,34.13
2017-03-29T04:12:14.150Z,34.13
2017-03-29T04:13:24.381Z,34.13
2017-03-29T04:14:34.445Z,34.13
2017-03-29T04:15:44.660Z,34.22
2017-03-29T04:16:54.259Z,34.22
2017-03-29T04:18:03.853Z,34.13
2017-03-29T04:19:14.069Z,34.22
2017-03-29T04:20:24.118Z,34.13
2017-03-29T04:21:34.023Z,34.03
2017-03-29T04:22:43.927Z,34.32
2017-03-29T04:23:53.541Z,34.22
2017-03-29T04:25:03.780Z,34.22
2017-03-29T04:26:14.402Z,34.22
2017-03-29T04:27:24.306Z,34.22
2017-03-29T04:28:34.256Z,34.22
2017-03-29T04:29:44.210Z,34.22
2017-03-29T04:30:54.461Z,34.13
2017-03-29T04:32:04.537Z,34.13
2017-03-29T04:33:14.460Z,34.22
2017-03-29T04:34:24.700Z,34.13
2017-03-29T04:35:34.629Z,34.13
2017-03-29T04:36:44.542Z,34.32
2017-03-29T04:37:54.925Z,34.22
2017-03-29T04:39:04.829Z,34.52
2017-03-29T04:40:14.769Z,34.32
2017-03-29T04:41:24.981Z,34.42
2017-03-29T04:42:34.930Z,34.03
2017-03-29T04:43:45.299Z,34.13
2017-03-29T04:44:54.905Z,34.05
2017-03-29T04:46:05.133Z,34.24
2017-03-29T04:47:15.053Z,34.05
2017-03-29T04:48:24.081Z,33.86
2017-03-29T04:49:33.824Z,33.66
2017-03-29T04:50:43.748Z,33.66
2017-03-29T04:51:53.670Z,33.57
2017-03-29T04:53:03.304Z,33.18
2017-03-29T04:54:12.910Z,33.86
2017-03-29T04:55:23.238Z,33.86
2017-03-29T04:56:33.141Z,33.47
2017-03-29T04:57:43.077Z,33.66
2017-03-29T04:58:52.403Z,33.47
2017-03-29T05:00:02.635Z,33.37
2017-03-29T05:01:12.684Z,33.2
2017-03-29T05:02:22.301Z,33.29
2017-03-29T05:03:32.533Z,33.39
2017-03-29T05:04:42.435Z,33.1
2017-03-29T05:05:51.442Z,33.2
2017-03-29T05:07:01.763Z,33.1
2017-03-29T05:08:11.063Z,32.91
2017-03-29T05:09:21.290Z,32.91
2017-03-29T05:10:31.517Z,33
2017-03-29T05:11:41.733Z,33.02
2017-03-29T05:12:52.270Z,32.92
2017-03-29T05:14:02.180Z,32.91
2017-03-29T05:15:12.393Z,32.73
2017-03-29T05:16:22.317Z,32.73
2017-03-29T05:17:32.242Z,32.64
2017-03-29T05:18:42.624Z,32.44
2017-03-29T05:19:51.936Z,32.64
2017-03-29T05:21:01.839Z,32.34
2017-03-29T05:22:11.475Z,32.24
2017-03-29T05:23:21.716Z,32.34
2017-03-29T05:24:31.479Z,32.26
2017-03-29T05:25:41.694Z,32.17
2017-03-29T05:26:50.671Z,32.07
2017-03-29T05:28:00.262Z,32.07
2017-03-29T05:29:09.563Z,31.98
2017-03-29T05:30:19.981Z,31.98
2017-03-29T05:31:30.192Z,31.78
2017-03-29T05:32:40.095Z,31.78
2017-03-29T05:33:50.304Z,31.78
2017-03-29T05:34:59.900Z,31.8
2017-03-29T05:36:09.649Z,31.7
2017-03-29T05:37:19.242Z,31.7
2017-03-29T05:38:29.153Z,31.7
2017-03-29T05:39:38.777Z,31.51
2017-03-29T05:40:48.986Z,31.7
2017-03-29T05:41:59.342Z,31.6
2017-03-29T05:43:09.609Z,31.51
2017-03-29T05:44:19.521Z,31.6
2017-03-29T05:45:29.420Z,31.6
2017-03-29T05:46:39.343Z,31.6
2017-03-29T05:47:49.442Z,31.6
2017-03-29T05:48:59.344Z,31.6
2017-03-29T05:50:08.943Z,31.52
2017-03-29T05:51:18.547Z,31.71
2017-03-29T05:52:28.768Z,31.43
2017-03-29T05:53:38.525Z,31.62
2017-03-29T05:54:48.741Z,31.71
2017-03-29T05:55:58.676Z,31.62
2017-03-29T05:57:08.599Z,31.62
2017-03-29T05:58:18.813Z,31.71
2017-03-29T05:59:29.186Z,31.62
2017-03-29T06:00:38.788Z,31.52
2017-03-29T06:01:48.695Z,31.62
2017-03-29T06:02:58.611Z,31.62
2017-03-29T06:04:08.829Z,31.62
2017-03-29T06:05:19.206Z,31.62
2017-03-29T06:06:28.811Z,31.62
2017-03-29T06:07:38.709Z,31.71
2017-03-29T06:08:48.610Z,31.71
2017-03-29T06:09:57.894Z,31.91
2017-03-29T06:11:07.347Z,32.01
2017-03-29T06:12:17.577Z,32.01
2017-03-29T06:13:27.176Z,32.01
2017-03-29T06:14:37.086Z,32.1
2017-03-29T06:15:46.694Z,32.1
2017-03-29T06:16:57.064Z,32.1
2017-03-29T06:18:07.269Z,32.18
2017-03-29T06:19:17.195Z,32.2
2017-03-29T06:20:27.412Z,32.2
2017-03-29T06:21:37.695Z,32.29
2017-03-29T06:22:47.464Z,32.28
2017-03-29T06:23:57.673Z,32.38
2017-03-29T06:25:07.584Z,32.28
2017-03-29T06:26:17.195Z,32.28
2017-03-29T06:27:26.784Z,32.57
2017-03-29T06:28:36.539Z,32.47
2017-03-29T06:29:46.443Z,32.67
2017-03-29T06:30:55.733Z,32.76
2017-03-29T06:32:05.951Z,32.67
2017-03-29T06:33:15.558Z,32.67
2017-03-29T06:34:25.917Z,32.57
2017-03-29T06:35:36.124Z,32.86
2017-03-29T06:36:46.023Z,32.67
2017-03-29T06:37:55.321Z,33.15
2017-03-29T06:39:05.245Z,32.96
2017-03-29T06:40:15.616Z,33.15
2017-03-29T06:41:25.834Z,32.86
2017-03-29T06:42:36.063Z,33.05
2017-03-29T06:43:45.968Z,32.96
2017-03-29T06:44:55.561Z,33.15
2017-03-29T06:46:05.617Z,33.25
2017-03-29T06:47:15.527Z,33.25
2017-03-29T06:48:25.142Z,33.05
2017-03-29T06:49:35.363Z,33.15
2017-03-29T06:50:44.981Z,33.34
2017-03-29T06:51:54.383Z,33.15
2017-03-29T06:53:04.610Z,33.14
2017-03-29T06:54:14.216Z,33.44
2017-03-29T06:55:24.429Z,33.25
2017-03-29T06:56:34.339Z,33.33
2017-03-29T06:57:44.342Z,33.34
2017-03-29T06:58:54.248Z,33.42
2017-03-29T07:00:03.852Z,33.52
2017-03-29T07:01:12.848Z,33.23
2017-03-29T07:02:22.753Z,33.25
2017-03-29T07:03:32.776Z,33.25
2017-03-29T07:04:42.619Z,33.14
2017-03-29T07:05:52.658Z,33.25
2017-03-29T07:07:02.579Z,33.25
2017-03-29T07:08:12.512Z,33.25
2017-03-29T07:09:22.248Z,33.15
2017-03-29T07:10:32.182Z,33.15
2017-03-29T07:11:41.786Z,33.15
2017-03-29T07:12:51.726Z,33.25
2017-03-29T07:14:01.665Z,33.34
2017-03-29T07:15:11.683Z,33.25
2017-03-29T07:16:21.915Z,33.34
2017-03-29T07:17:31.230Z,33.44
2017-03-29T07:18:41.199Z,33.42
2017-03-29T07:19:50.485Z,33.34
2017-03-29T07:21:00.549Z,33.05
2017-03-29T07:22:10.765Z,33.34
2017-03-29T07:23:20.982Z,33.15
2017-03-29T07:24:30.591Z,33.44
2017-03-29T07:25:40.199Z,33.44
2017-03-29T07:26:50.268Z,33.54
2017-03-29T07:28:00.490Z,33.25
2017-03-29T07:29:10.090Z,33.33
2017-03-29T07:30:20.322Z,33.34
2017-03-29T07:31:30.234Z,33.54
2017-03-29T07:32:40.612Z,33.25
2017-03-29T07:33:50.520Z,33.25
2017-03-29T07:35:00.429Z,33.25
2017-03-29T07:36:10.653Z,33.34
2017-03-29T07:37:20.874Z,33.15
2017-03-29T07:38:30.936Z,33.05
2017-03-29T07:39:40.853Z,33.25
2017-03-29T07:40:50.772Z,33.05
2017-03-29T07:42:00.988Z,33.15
2017-03-29T07:43:10.919Z,33.25
2017-03-29T07:44:21.300Z,33.25
2017-03-29T07:45:31.524Z,33.15
2017-03-29T07:46:41.438Z,33.25
2017-03-29T07:47:50.735Z,33.44
2017-03-29T07:49:00.987Z,33.44
2017-03-29T07:50:10.751Z,33.44
2017-03-29T07:51:20.356Z,33.54
2017-03-29T07:52:30.574Z,33.34
2017-03-29T07:53:40.804Z,33.34
2017-03-29T07:54:51.029Z,33.05
2017-03-29T07:56:01.297Z,33.34
2017-03-29T07:57:11.210Z,33.44
2017-03-29T07:58:21.428Z,33.54
2017-03-29T07:59:31.628Z,33.44
2017-03-29T08:00:41.232Z,33.05
2017-03-29T08:01:51.506Z,33.25
2017-03-29T08:03:01.423Z,33.15
2017-03-29T08:04:11.325Z,33.25
2017-03-29T08:05:21.247Z,33.15
2017-03-29T08:06:30.846Z,33.15
2017-03-29T08:07:40.889Z,33.15
2017-03-29T08:08:50.781Z,33.25
2017-03-29T08:10:00.985Z,33.25
2017-03-29T08:11:10.583Z,33.15
2017-03-29T08:12:20.485Z,33.34
2017-03-29T08:13:30.239Z,33.15
2017-03-29T08:14:40.150Z,33.25
2017-03-29T08:15:49.448Z,33.25
2017-03-29T08:16:59.371Z,33.05
2017-03-29T08:18:09.676Z,33.34
2017-03-29T08:19:20.418Z,33.25
2017-03-29T08:20:30.339Z,33.25
2017-03-29T08:21:39.940Z,33.25
2017-03-29T08:22:49.914Z,33.15
2017-03-29T08:24:00.134Z,33.07
2017-03-29T08:25:10.204Z,33.07
2017-03-29T08:26:20.425Z,32.97
2017-03-29T08:27:29.750Z,32.78
2017-03-29T08:28:39.968Z,33.07
2017-03-29T08:29:49.875Z,33.07
2017-03-29T08:30:59.933Z,32.78
2017-03-29T08:32:09.253Z,32.68
2017-03-29T08:33:19.479Z,32.49
2017-03-29T08:34:29.395Z,32.68
2017-03-29T08:35:39.309Z,33.07
2017-03-29T08:36:49.695Z,32.78
2017-03-29T08:37:59.941Z,32.97
2017-03-29T08:39:10.166Z,33.07
2017-03-29T08:40:20.388Z,32.97
2017-03-29T08:41:30.312Z,32.97
2017-03-29T08:42:40.682Z,33.07
2017-03-29T08:43:50.596Z,32.97
2017-03-29T08:45:00.199Z,32.97
2017-03-29T08:46:10.132Z,32.87
2017-03-29T08:47:19.737Z,32.87
2017-03-29T08:48:29.806Z,32.97
2017-03-29T08:49:40.040Z,32.97
2017-03-29T08:50:49.676Z,32.97
2017-03-29T08:51:59.282Z,33.07
2017-03-29T08:53:09.200Z,32.97
2017-03-29T08:54:19.219Z,32.97
2017-03-29T08:55:29.140Z,32.97
2017-03-29T08:56:39.301Z,32.97
2017-03-29T08:57:48.915Z,32.87
2017-03-29T08:58:57.905Z,33.07
2017-03-29T09:00:07.934Z,33.07
2017-03-29T09:01:18.180Z,32.87
2017-03-29T09:02:28.095Z,33.17
2017-03-29T09:03:37.709Z,33.26
2017-03-29T09:04:48.293Z,33.17
2017-03-29T09:05:58.309Z,33.17
2017-03-29T09:07:08.552Z,33.17
2017-03-29T09:08:18.759Z,33.17
2017-03-29T09:09:28.976Z,32.97
2017-03-29T09:10:38.282Z,32.87
2017-03-29T09:11:47.979Z,32.97
2017-03-29T09:12:58.195Z,33.17
2017-03-29T09:14:08.116Z,32.87
2017-03-29T09:15:17.717Z,32.97
2017-03-29T09:16:27.637Z,33.26
2017-03-29T09:17:37.651Z,33.26
2017-03-29T09:18:47.578Z,33.26
2017-03-29T09:19:57.892Z,33.17
2017-03-29T09:21:07.506Z,33.17
2017-03-29T09:22:17.744Z,33.26
2017-03-29T09:23:27.807Z,33.36
2017-03-29T09:24:38.010Z,33.45
2017-03-29T09:25:47.627Z,33.36
2017-03-29T09:26:57.554Z,33.36
2017-03-29T09:28:07.775Z,33.34
2017-03-29T09:29:18.142Z,32.96
2017-03-29T09:30:28.055Z,33.15
2017-03-29T09:31:37.986Z,33.54
2017-03-29T09:32:48.207Z,33.44
2017-03-29T09:33:58.434Z,33.54
2017-03-29T09:35:08.821Z,33.54
2017-03-29T09:36:18.728Z,33.44
2017-03-29T09:37:28.336Z,33.54
2017-03-29T09:38:38.246Z,33.54
2017-03-29T09:39:48.473Z,33.34
2017-03-29T09:40:58.234Z,33.34
2017-03-29T09:42:08.153Z,33.34
2017-03-29T09:43:18.087Z,33.73
2017-03-29T09:44:28.003Z,33.83
2017-03-29T09:45:37.613Z,33.83
2017-03-29T09:46:48.050Z,33.73
2017-03-29T09:47:58.039Z,33.34
2017-03-29T09:49:07.974Z,33.54
2017-03-29T09:50:18.187Z,33.44
2017-03-29T09:51:27.499Z,33.15
2017-03-29T09:52:36.946Z,33.54
2017-03-29T09:53:46.304Z,33.73
2017-03-29T09:54:55.914Z,33.54
2017-03-29T09:56:05.531Z,33.63
2017-03-29T09:57:15.141Z,33.25
2017-03-29T09:58:25.214Z,33.83
2017-03-29T09:59:35.151Z,33.62
2017-03-29T10:00:45.375Z,33.73
2017-03-29T10:01:54.991Z,33.63
2017-03-29T10:03:05.230Z,33.73
2017-03-29T10:04:14.678Z,33.73
2017-03-29T10:05:24.598Z,33.73
2017-03-29T10:06:33.919Z,33.73
2017-03-29T10:07:43.846Z,33.63
2017-03-29T10:08:53.754Z,33.73
2017-03-29T10:10:03.504Z,33.63
2017-03-29T10:11:13.113Z,33.83
2017-03-29T10:12:23.069Z,33.83
2017-03-29T10:13:33.291Z,33.83
2017-03-29T10:14:42.591Z,33.83
2017-03-29T10:15:52.356Z,33.83
2017-03-29T10:17:01.679Z,34.02
2017-03-29T10:18:11.611Z,34.1
2017-03-29T10:19:21.238Z,34.12
2017-03-29T10:20:31.186Z,34
2017-03-29T10:21:40.959Z,33.91
2017-03-29T10:22:50.878Z,34.2
2017-03-29T10:24:00.790Z,34.2
2017-03-29T10:25:10.711Z,34.29
2017-03-29T10:26:20.017Z,34.2
2017-03-29T10:27:30.078Z,34.1
2017-03-29T10:28:39.686Z,34.29
2017-03-29T10:29:49.594Z,34.2
2017-03-29T10:30:59.519Z,34.1
2017-03-29T10:32:09.747Z,34.1
2017-03-29T10:33:19.906Z,34.2
2017-03-29T10:34:29.825Z,34.1
2017-03-29T10:35:38.827Z,34.1
2017-03-29T10:36:49.094Z,34.1
2017-03-29T10:37:58.709Z,34.2
2017-03-29T10:39:08.455Z,34.1
2017-03-29T10:40:18.660Z,34
2017-03-29T10:41:28.262Z,34
2017-03-29T10:42:38.175Z,34
2017-03-29T10:43:47.778Z,34.48
2017-03-29T10:44:57.532Z,34.39
2017-03-29T10:46:07.131Z,34.48
2017-03-29T10:47:16.752Z,34.48
2017-03-29T10:48:26.355Z,34.29
2017-03-29T10:49:36.555Z,34.29
2017-03-29T10:50:46.878Z,34.39
2017-03-29T10:51:56.792Z,34.39
2017-03-29T10:53:07.008Z,34.39
2017-03-29T10:54:16.640Z,34.39
2017-03-29T10:55:26.254Z,34.29
2017-03-29T10:56:36.288Z,34.29
2017-03-29T10:57:46.508Z,34.2
2017-03-29T10:58:56.433Z,34.29
2017-03-29T11:00:06.039Z,34.29
2017-03-29T11:01:16.263Z,34.29
2017-03-29T11:02:26.625Z,34.2
2017-03-29T11:03:35.935Z,34.29
2017-03-29T11:04:46.144Z,34.39
2017-03-29T11:05:56.056Z,34.39
2017-03-29T11:07:05.662Z,34.29
2017-03-29T11:08:15.692Z,34.48
2017-03-29T11:09:25.323Z,34.29
2017-03-29T11:10:35.278Z,34.48
2017-03-29T11:11:44.570Z,34
2017-03-29T11:12:54.186Z,34.1
2017-03-29T11:14:03.271Z,34.1
2017-03-29T11:15:13.178Z,34.1
2017-03-29T11:16:22.780Z,34
2017-03-29T11:17:32.694Z,34.1
2017-03-29T11:18:42.318Z,34.2
2017-03-29T11:19:52.041Z,34.1
2017-03-29T11:21:01.354Z,34.1
2017-03-29T11:22:11.574Z,34.1
2017-03-29T11:23:21.480Z,34.2
2017-03-29T11:24:31.703Z,34.1
2017-03-29T11:25:41.756Z,34.1
2017-03-29T11:26:51.363Z,34.1
2017-03-29T11:28:01.279Z,34.1
2017-03-29T11:29:10.910Z,34.1
2017-03-29T11:30:20.830Z,34
2017-03-29T11:31:30.889Z,34.1
2017-03-29T11:32:41.102Z,34.1
2017-03-29T11:33:51.028Z,34.1
2017-03-29T11:35:00.664Z,34.1
2017-03-29T11:36:10.305Z,34.2
2017-03-29T11:37:20.359Z,34.2
2017-03-29T11:38:30.282Z,34.1
2017-03-29T11:39:40.226Z,34.1
2017-03-29T11:40:50.148Z,34.2
2017-03-29T11:42:00.356Z,34.1
2017-03-29T11:43:10.727Z,34.1
2017-03-29T11:44:20.965Z,34.1
2017-03-29T11:45:31.571Z,34.1
2017-03-29T11:46:41.795Z,34.1
2017-03-29T11:47:52.021Z,34.1
2017-03-29T11:49:01.788Z,34.2
2017-03-29T11:50:12.029Z,34.2
2017-03-29T11:51:21.653Z,34.1
2017-03-29T11:52:31.573Z,34.2
2017-03-29T11:53:41.179Z,34.29
2017-03-29T11:54:51.230Z,34.1
2017-03-29T11:56:00.836Z,34
2017-03-29T11:57:10.147Z,34.1
2017-03-29T11:58:20.375Z,34
2017-03-29T11:59:30.575Z,33.91
2017-03-29T12:00:40.655Z,34
2017-03-29T12:01:50.560Z,33.72
2017-03-29T12:03:00.819Z,33.81
2017-03-29T12:04:10.741Z,33.91
2017-03-29T12:05:20.350Z,33.72
2017-03-29T12:06:30.751Z,33.91
2017-03-29T12:07:40.670Z,33.62
2017-03-29T12:08:50.582Z,33.63
2017-03-29T12:10:00.798Z,33.72
2017-03-29T12:11:10.084Z,33.72
2017-03-29T12:12:19.546Z,33.81
2017-03-29T12:13:29.820Z,33.81
2017-03-29T12:14:39.427Z,33.23
2017-03-29T12:15:49.669Z,33.54
2017-03-29T12:16:59.911Z,33.44
2017-03-29T12:18:10.279Z,33.44
2017-03-29T12:19:20.193Z,33.73
2017-03-29T12:20:29.811Z,33.23
2017-03-29T12:21:39.428Z,33.73
2017-03-29T12:22:49.666Z,33.52
2017-03-29T12:23:59.439Z,33.42
2017-03-29T12:25:08.754Z,33.62
2017-03-29T12:26:18.658Z,33.92
2017-03-29T12:27:28.567Z,33.81
2017-03-29T12:28:38.802Z,33.52
2017-03-29T12:29:48.878Z,33.44
2017-03-29T12:30:59.091Z,33.54
2017-03-29T12:32:09.306Z,33.44
2017-03-29T12:33:19.513Z,33.73
2017-03-29T12:34:29.121Z,33.72
2017-03-29T12:35:39.209Z,33.83
2017-03-29T12:36:49.443Z,33.83
2017-03-29T12:37:58.739Z,33.73
2017-03-29T12:39:08.356Z,33.83
2017-03-29T12:40:17.972Z,33.63
2017-03-29T12:41:27.731Z,33.83
2017-03-29T12:42:37.969Z,33.73
2017-03-29T12:43:47.608Z,33.83
2017-03-29T12:44:57.224Z,33.63
2017-03-29T12:46:06.836Z,33.63
2017-03-29T12:47:16.899Z,33.83
2017-03-29T12:48:26.190Z,33.63
2017-03-29T12:49:36.420Z,33.72
2017-03-29T12:50:46.351Z,33.25
2017-03-29T12:51:56.290Z,33.83
2017-03-29T12:53:06.308Z,33.44
2017-03-29T12:54:16.522Z,33.63
2017-03-29T12:55:26.737Z,33.34
2017-03-29T12:56:36.661Z,33.34
2017-03-29T12:57:46.887Z,33.81
2017-03-29T12:58:57.245Z,33.34
2017-03-29T13:00:06.855Z,33.63
2017-03-29T13:01:16.770Z,33.63
2017-03-29T13:02:26.383Z,33.54
2017-03-29T13:03:35.994Z,33.54
2017-03-29T13:04:46.000Z,33.54
2017-03-29T13:05:56.216Z,33.63
2017-03-29T13:07:06.128Z,33.44
2017-03-29T13:08:15.745Z,33.54
2017-03-29T13:09:26.040Z,33.54
2017-03-29T13:10:36.064Z,33.63
2017-03-29T13:11:45.358Z,33.83
2017-03-29T13:12:55.268Z,33.72
2017-03-29T13:14:05.176Z,33.54
2017-03-29T13:15:15.393Z,33.63
2017-03-29T13:16:24.851Z,33.73
2017-03-29T13:17:34.772Z,33.52
2017-03-29T13:18:44.383Z,33.25
2017-03-29T13:19:54.302Z,33.72
2017-03-29T13:21:04.220Z,33.42
2017-03-29T13:22:14.033Z,33.81
2017-03-29T13:23:23.647Z,33.83
2017-03-29T13:24:33.568Z,33.81
2017-03-29T13:25:43.179Z,33.72
2017-03-29T13:26:53.121Z,33.42
2017-03-29T13:28:03.219Z,33.72
2017-03-29T13:29:13.159Z,33.83
2017-03-29T13:30:22.834Z,33.62
2017-03-29T13:31:33.104Z,33.81
2017-03-29T13:32:42.429Z,33.91
2017-03-29T13:33:52.195Z,33.72
2017-03-29T13:35:02.141Z,33.92
2017-03-29T13:36:12.059Z,33.81
2017-03-29T13:37:22.276Z,33.91
2017-03-29T13:38:32.512Z,34
2017-03-29T13:39:42.588Z,33.91
2017-03-29T13:40:52.920Z,33.81
2017-03-29T13:42:02.743Z,33.91
2017-03-29T13:43:12.117Z,33.91
2017-03-29T13:44:22.151Z,34
2017-03-29T13:45:31.920Z,34
2017-03-29T13:46:41.867Z,33.91
2017-03-29T13:47:51.806Z,33.91
2017-03-29T13:49:01.766Z,34.1
2017-03-29T13:50:11.738Z,33.91
2017-03-29T13:51:22.141Z,34.1
2017-03-29T13:52:31.755Z,34
2017-03-29T13:53:41.076Z,34
2017-03-29T13:54:50.697Z,34
2017-03-29T13:56:00.621Z,34.1
2017-03-29T13:57:10.379Z,34.2
2017-03-29T13:58:20.593Z,34.1
2017-03-29T13:59:30.512Z,34.1
2017-03-29T14:00:40.161Z,34.2
2017-03-29T14:01:50.253Z,34.29
2017-03-29T14:03:00.332Z,34
2017-03-29T14:04:09.948Z,34.29
2017-03-29T14:05:19.875Z,34.1
2017-03-29T14:06:29.533Z,34.2
2017-03-29T14:07:39.169Z,34.1
2017-03-29T14:08:49.081Z,34.1
2017-03-29T14:09:58.993Z,34.2
2017-03-29T14:11:09.222Z,34.2
2017-03-29T14:12:19.477Z,34.1
2017-03-29T14:13:29.096Z,34.2
2017-03-29T14:14:39.173Z,34.1
2017-03-29T14:15:49.322Z,34.1
2017-03-29T14:16:58.929Z,34
2017-03-29T14:18:08.538Z,34.1
2017-03-29T14:19:18.444Z,34.48
2017-03-29T14:20:28.502Z,34
2017-03-29T14:21:38.113Z,34.48
2017-03-29T14:22:47.709Z,34
2017-03-29T14:23:57.325Z,34.48
2017-03-29T14:25:07.259Z,34.48
2017-03-29T14:26:17.338Z,34.48
2017-03-29T14:27:27.268Z,34.39
2017-03-29T14:28:36.573Z,34.48
2017-03-29T14:29:46.178Z,34.39
2017-03-29T14:30:56.091Z,34.39
2017-03-29T14:32:06.472Z,34.39
2017-03-29T14:33:16.388Z,34.39
2017-03-29T14:34:25.694Z,34.39
2017-03-29T14:35:35.599Z,34.39
2017-03-29T14:36:45.287Z,34.39
2017-03-29T14:37:55.681Z,34.58
2017-03-29T14:39:05.617Z,34
2017-03-29T14:40:15.861Z,34
2017-03-29T14:41:25.482Z,34
2017-03-29T14:42:35.400Z,34.2
2017-03-29T14:43:45.814Z,34.1
2017-03-29T14:44:54.821Z,34
2017-03-29T14:46:04.763Z,34.1
2017-03-29T14:47:14.736Z,34.1
2017-03-29T14:48:24.647Z,34
2017-03-29T14:49:35.044Z,34.1
2017-03-29T14:50:44.711Z,34.1
2017-03-29T14:51:54.653Z,34.1
2017-03-29T14:53:04.565Z,34
2017-03-29T14:54:14.798Z,34.1
2017-03-29T14:55:24.873Z,34.1
2017-03-29T14:56:34.816Z,34
2017-03-29T14:57:44.737Z,34.2
2017-03-29T14:58:54.044Z,34.1
2017-03-29T15:00:03.350Z,34.58
2017-03-29T15:01:13.411Z,34.1
2017-03-29T15:02:23.334Z,34
2017-03-29T15:03:33.260Z,34
2017-03-29T15:04:42.246Z,34.1
2017-03-29T15:05:52.154Z,34
2017-03-29T15:07:02.225Z,34.1
2017-03-29T15:08:11.856Z,34.48
2017-03-29T15:09:22.147Z,34